Cape Broyle, Canada
Current Conditions -  °F | °C
As of 2:00 AM on Friday 31 Oct 2014 (Local Time) from CYYT Reporting Station
Overcast Overcast  
Wind Chill: 42°   Ceiling: 2900
Heat Index: 48°   Visibility: 15mi
Dew Point: 46°   Wind: 15mph
Humidity: 93%   Direction: 270°W
Pressure: 29.71"   Gusts: NA
Location:  47.08°N, 52.95°W
Report Text: CYYT 310400Z 27013KT 15SM OVC029 09/08 A2971 RMK SC8 SLP062
Loading
Personal Weather Stations






























Interactive Weather Map
Tropical Storm Tracking
New forecast layout! Learn more

10-Day Weather Forecast

Advertisements
Track Severe Weather on mobile